Time;durP1;ratioP1;P1;durP2;ratioP2;P2;SDS_P1;SDS_P2;PMS_P1;PMS_P2;Temp;Humidity;BMP_temperature;BMP_pressure;BME280_temperature;BME280_humidity;BME280_pressure;Samples;Min_cycle;Max_cycle;Signal;HPM_P1;HPM_P2
2022/05/07 00:00:31;;;;;;;1999.90;999.90;;;14.20;99.90;;;;;;5055188;28;20479;-76
2022/05/07 00:02:56;;;;;;;1999.90;999.90;;;14.20;99.90;;;;;;5057807;28;20036;-71
2022/05/07 00:05:22;;;;;;;1999.90;999.90;;;14.10;99.90;;;;;;5054106;28;20032;-71
2022/05/07 00:07:48;;;;;;;1999.90;999.90;;;14.10;99.90;;;;;;5057477;28;20534;-71
2022/05/07 00:10:14;;;;;;;1999.90;999.90;;;14.10;99.90;;;;;;5055175;28;20017;-76
2022/05/07 00:12:41;;;;;;;1999.90;999.90;;;14.10;99.90;;;;;;5067487;28;20376;-76
2022/05/07 00:15:07;;;;;;;1999.90;999.90;;;14.00;99.90;;;;;;5058400;28;20021;-76
2022/05/07 00:20:17;;;;;;;1999.90;999.90;;;13.90;99.90;;;;;;5051701;28;20529;-71
2022/05/07 00:22:43;;;;;;;1999.90;999.90;;;13.90;99.90;;;;;;5052362;28;20064;-71
2022/05/07 00:25:10;;;;;;;1999.90;999.90;;;13.90;99.90;;;;;;5050976;28;20075;-77
2022/05/07 00:27:36;;;;;;;1999.90;999.90;;;13.90;99.90;;;;;;5052253;28;20017;-71
2022/05/07 00:30:03;;;;;;;1999.90;999.90;;;13.80;99.90;;;;;;5051929;28;20476;-75
2022/05/07 00:32:29;;;;;;;1999.90;999.90;;;13.80;99.90;;;;;;5051961;28;20476;-75
2022/05/07 00:34:54;;;;;;;1999.90;999.90;;;13.80;99.90;;;;;;5051967;28;20096;-71
2022/05/07 00:37:20;;;;;;;1999.90;999.90;;;13.70;99.90;;;;;;5055911;28;20450;-76
2022/05/07 00:39:47;;;;;;;1999.90;999.90;;;13.70;99.90;;;;;;5051854;28;20021;-76
2022/05/07 00:42:13;;;;;;;1999.90;999.90;;;13.70;99.90;;;;;;5051380;28;20037;-71
2022/05/07 00:44:38;;;;;;;1999.90;999.90;;;13.70;99.90;;;;;;5052142;28;20107;-71
2022/05/07 00:47:15;;;;;;;1999.90;999.90;;;13.70;99.90;;;;;;5058919;28;20075;-71
2022/05/07 00:49:43;;;;;;;1999.90;999.90;;;13.60;99.90;;;;;;5064080;28;20021;-71
2022/05/07 00:52:08;;;;;;;1999.90;999.90;;;13.60;99.90;;;;;;5061993;28;20048;-76
2022/05/07 00:54:34;;;;;;;1999.90;999.90;;;13.70;99.90;;;;;;5052235;28;20025;-76
2022/05/07 00:57:01;;;;;;;1999.90;999.90;;;13.60;99.90;;;;;;5059791;28;20028;-71
2022/05/07 00:59:26;;;;;;;1999.90;999.90;;;13.70;99.90;;;;;;5054639;28;20021;-71
2022/05/07 01:01:53;;;;;;;1999.90;999.90;;;13.60;99.90;;;;;;5064687;28;20033;-76
2022/05/07 01:04:18;;;;;;;1999.90;999.90;;;13.60;99.90;;;;;;5056155;28;20392;-76
2022/05/07 01:06:44;;;;;;;1999.90;999.90;;;13.50;99.90;;;;;;5063061;28;20027;-71
2022/05/07 01:09:11;;;;;;;1999.90;999.90;;;13.50;99.90;;;;;;5055521;28;20096;-76
2022/05/07 01:11:37;;;;;;;1999.90;999.90;;;13.50;99.90;;;;;;5064178;28;20040;-71
2022/05/07 01:14:02;;;;;;;1999.90;999.90;;;13.50;99.90;;;;;;5058343;28;20029;-71
2022/05/07 01:16:28;;;;;;;1999.90;999.90;;;13.50;99.90;;;;;;5056286;28;20484;-76
2022/05/07 01:18:54;;;;;;;1999.90;999.90;;;13.50;99.90;;;;;;5054810;28;20017;-71
2022/05/07 01:21:19;;;;;;;1999.90;999.90;;;13.50;99.90;;;;;;5054879;28;20033;-76
2022/05/07 01:23:47;;;;;;;1999.90;999.90;;;13.50;99.90;;;;;;5055367;28;20017;-71
2022/05/07 01:26:14;;;;;;;1999.90;999.90;;;13.40;99.90;;;;;;5061791;28;20107;-71
2022/05/07 01:28:40;;;;;;;1999.90;999.90;;;13.40;99.90;;;;;;5057959;28;20117;-76
2022/05/07 01:31:06;;;;;;;1999.90;999.90;;;13.40;99.90;;;;;;5056022;28;20041;-76
2022/05/07 01:33:33;;;;;;;1999.90;999.90;;;13.30;99.90;;;;;;5055092;28;20029;-71
2022/05/07 01:36:03;;;;;;;1999.90;999.90;;;13.30;99.90;;;;;;5054797;28;20013;-71
2022/05/07 01:38:30;;;;;;;1999.90;999.90;;;13.30;99.90;;;;;;5054903;28;20028;-71
2022/05/07 01:40:56;;;;;;;1999.90;999.90;;;13.30;99.90;;;;;;5054961;28;20029;-76
2022/05/07 01:43:22;;;;;;;1999.90;999.90;;;13.20;99.90;;;;;;5054880;28;20510;-76
2022/05/07 01:45:48;;;;;;;1999.90;999.90;;;13.20;99.90;;;;;;5054532;28;20045;-75
2022/05/07 01:48:13;;;;;;;1999.90;999.90;;;13.20;99.90;;;;;;5062628;28;20029;-71
2022/05/07 01:50:41;;;;;;;1999.90;999.90;;;13.10;99.90;;;;;;5057904;28;20032;-71
2022/05/07 01:53:12;;;;;;;1999.90;999.90;;;13.10;99.90;;;;;;5050559;28;20374;-71
2022/05/07 01:55:38;;;;;;;1999.90;999.90;;;13.10;99.90;;;;;;5053912;28;20039;-77
2022/05/07 01:58:04;;;;;;;1999.90;999.90;;;13.10;99.90;;;;;;5054331;28;20021;-71
2022/05/07 02:00:31;;;;;;;1999.90;999.90;;;13.10;99.90;;;;;;5057301;28;20074;-71
2022/05/07 02:02:59;;;;;;;1999.90;999.90;;;13.10;99.90;;;;;;5060193;28;20495;-76
2022/05/07 02:05:27;;;;;;;1999.90;999.90;;;13.10;99.90;;;;;;5055468;28;20028;-71
2022/05/07 02:07:54;;;;;;;1999.90;999.90;;;13.00;99.90;;;;;;5059366;28;20025;-76
2022/05/07 02:10:21;;;;;;;1999.90;999.90;;;13.00;99.90;;;;;;5056639;28;20024;-76
2022/05/07 02:12:48;;;;;;;1999.90;999.90;;;13.00;99.90;;;;;;5059116;28;20029;-76
2022/05/07 02:15:13;;;;;;;1999.90;999.90;;;13.00;99.90;;;;;;5059897;28;20052;-71
2022/05/07 02:17:39;;;;;;;1999.90;999.90;;;12.90;99.90;;;;;;5054145;28;20059;-76
2022/05/07 02:20:06;;;;;;;1999.90;999.90;;;12.90;99.90;;;;;;5052498;28;20029;-76
2022/05/07 02:22:31;;;;;;;1999.90;999.90;;;12.90;99.90;;;;;;5054150;28;20032;-76
2022/05/07 02:25:00;;;;;;;1999.90;999.90;;;12.90;99.90;;;;;;5054357;28;20442;-71
2022/05/07 02:27:26;;;;;;;1999.90;999.90;;;12.90;99.90;;;;;;5053254;28;20032;-77
2022/05/07 02:29:52;;;;;;;1999.90;999.90;;;12.80;99.90;;;;;;5053786;28;20021;-72
2022/05/07 02:32:18;;;;;;;1999.90;999.90;;;12.90;99.90;;;;;;5052336;28;20032;-72
2022/05/07 02:34:44;;;;;;;1999.90;999.90;;;12.90;99.90;;;;;;5053852;28;20028;-71
2022/05/07 02:37:10;;;;;;;1999.90;999.90;;;12.80;99.90;;;;;;5052691;28;20029;-71
2022/05/07 02:39:36;;;;;;;1999.90;999.90;;;12.80;99.90;;;;;;5053748;28;20029;-71
2022/05/07 02:44:46;;;;;;;1999.90;999.90;;;12.90;99.90;;;;;;5044965;28;20039;-71
2022/05/07 02:47:12;;;;;;;1999.90;999.90;;;12.80;99.90;;;;;;5053515;28;20048;-75
2022/05/07 02:49:38;;;;;;;1999.90;999.90;;;12.90;99.90;;;;;;5061473;28;20028;-76
2022/05/07 02:52:04;;;;;;;1999.90;999.90;;;12.80;99.90;;;;;;5059676;28;20032;-71
2022/05/07 02:54:30;;;;;;;1999.90;999.90;;;12.80;99.90;;;;;;5049656;28;20387;-76
2022/05/07 02:56:56;;;;;;;1999.90;999.90;;;12.80;99.90;;;;;;5053408;28;20055;-71
2022/05/07 02:59:21;;;;;;;1999.90;999.90;;;12.80;99.90;;;;;;5053275;28;20466;-76
2022/05/07 03:01:47;;;;;;;1999.90;999.90;;;12.90;99.90;;;;;;5061830;28;20059;-71
2022/05/07 03:04:13;;;;;;;1999.90;999.90;;;12.80;99.90;;;;;;5060631;28;20035;-70
2022/05/07 03:06:39;;;;;;;1999.90;999.90;;;12.80;99.90;;;;;;5060810;28;20035;-71
2022/05/07 03:09:06;;;;;;;1999.90;999.90;;;12.80;99.90;;;;;;5052796;28;20028;-71
2022/05/07 03:11:35;;;;;;;1999.90;999.90;;;12.80;99.90;;;;;;5061881;28;20021;-71
2022/05/07 03:14:02;;;;;;;1999.90;999.90;;;12.80;99.90;;;;;;5056305;28;20021;-76
2022/05/07 03:16:27;;;;;;;1999.90;999.90;;;12.80;99.90;;;;;;5054418;28;20021;-71
2022/05/07 03:18:53;;;;;;;1999.90;999.90;;;12.80;99.90;;;;;;5053183;28;20609;-73
2022/05/07 03:21:19;;;;;;;1999.90;999.90;;;12.70;99.90;;;;;;5052448;28;20407;-71
2022/05/07 03:23:45;;;;;;;1999.90;999.90;;;12.70;99.90;;;;;;5053190;28;20059;-71
2022/05/07 03:26:12;;;;;;;1999.90;999.90;;;12.70;99.90;;;;;;5051652;28;20036;-76
2022/05/07 03:28:38;;;;;;;1999.90;999.90;;;12.70;99.90;;;;;;5052985;28;20060;-71
2022/05/07 03:31:04;;;;;;;1999.90;999.90;;;12.60;99.90;;;;;;5049832;28;20053;-76
2022/05/07 03:33:30;;;;;;;1999.90;999.90;;;12.60;99.90;;;;;;5052924;28;20483;-71
2022/05/07 03:35:56;;;;;;;1999.90;999.90;;;12.50;99.90;;;;;;5052383;28;20031;-71
2022/05/07 03:38:22;;;;;;;1999.90;999.90;;;12.50;99.90;;;;;;5052287;28;20021;-71
2022/05/07 03:40:48;;;;;;;1999.90;999.90;;;12.50;99.90;;;;;;5052867;28;20032;-71
2022/05/07 03:43:14;;;;;;;1999.90;999.90;;;12.50;99.90;;;;;;5052821;28;20104;-71
2022/05/07 03:45:40;;;;;;;1999.90;999.90;;;12.40;99.90;;;;;;5052248;28;20076;-72
2022/05/07 03:48:06;;;;;;;1999.90;999.90;;;12.40;99.90;;;;;;5059353;28;20075;-71
2022/05/07 03:50:31;;;;;;;1999.90;999.90;;;12.40;99.90;;;;;;5053625;28;20029;-71
2022/05/07 03:55:41;;;;;;;1999.90;999.90;;;12.30;99.90;;;;;;5056839;28;20044;-71
2022/05/07 03:58:11;;;;;;;1999.90;999.90;;;12.30;99.90;;;;;;5052480;28;20021;-71
2022/05/07 04:00:39;;;;;;;1999.90;999.90;;;12.20;99.90;;;;;;5067894;28;20100;-71
2022/05/07 04:03:05;;;;;;;1999.90;999.90;;;12.20;99.90;;;;;;5055675;28;20029;-71
2022/05/07 04:05:31;;;;;;;1999.90;999.90;;;12.20;99.90;;;;;;5055239;28;20487;-76
2022/05/07 04:07:56;;;;;;;1999.90;999.90;;;12.20;99.90;;;;;;5056696;28;20028;-70
2022/05/07 04:10:22;;;;;;;1999.90;999.90;;;12.10;99.90;;;;;;5052112;28;20480;-71
2022/05/07 04:12:51;;;;;;;1999.90;999.90;;;12.10;99.90;;;;;;5051780;28;20021;-70
2022/05/07 04:15:17;;;;;;;1999.90;999.90;;;12.10;99.90;;;;;;5056201;28;20033;-71
2022/05/07 04:17:43;;;;;;;1999.90;999.90;;;12.00;99.90;;;;;;5052278;28;20083;-71
2022/05/07 04:20:09;;;;;;;1999.90;999.90;;;12.00;99.90;;;;;;5054258;28;20483;-76
2022/05/07 04:22:35;;;;;;;1999.90;999.90;;;12.00;99.90;;;;;;5055360;28;20403;-71
2022/05/07 04:25:02;;;;;;;1999.90;999.90;;;12.00;99.90;;;;;;5056336;28;20033;-71
2022/05/07 04:27:28;;;;;;;1999.90;999.90;;;11.90;99.90;;;;;;5056151;28;20031;-71
2022/05/07 04:29:53;;;;;;;1999.90;999.90;;;11.90;99.90;;;;;;5054396;28;20396;-71
2022/05/07 04:32:19;;;;;;;1999.90;999.90;;;11.90;99.90;;;;;;5053625;28;20082;-76
2022/05/07 04:34:45;;;;;;;1999.90;999.90;;;11.90;99.90;;;;;;5071479;28;20076;-76
2022/05/07 04:37:10;;;;;;;1999.90;999.90;;;11.80;99.90;;;;;;5061975;28;20056;-75
2022/05/07 04:39:36;;;;;;;1999.90;999.90;;;11.80;99.90;;;;;;5065342;28;20403;-71
2022/05/07 04:42:03;;;;;;;1999.90;999.90;;;11.80;99.90;;;;;;5060070;28;20036;-71
2022/05/07 04:44:28;;;;;;;1999.90;999.90;;;11.80;99.90;;;;;;5055912;28;20045;-71
2022/05/07 04:46:54;;;;;;;1999.90;999.90;;;11.80;99.90;;;;;;5055604;28;20053;-76
2022/05/07 04:49:21;;;;;;;1999.90;999.90;;;11.80;99.90;;;;;;5055552;28;20494;-76
2022/05/07 04:51:50;;;;;;;1999.90;999.90;;;11.80;99.90;;;;;;5060854;28;20021;-71
2022/05/07 04:54:20;;;;;;;1999.90;999.90;;;11.70;99.90;;;;;;5055849;28;20021;-75
2022/05/07 04:56:50;;;;;;;1999.90;999.90;;;11.70;99.90;;;;;;5051250;28;20025;-71
2022/05/07 04:59:17;;;;;;;1999.90;999.90;;;11.70;99.90;;;;;;5055584;28;20491;-75
2022/05/07 05:01:43;;;;;;;1999.90;999.90;;;11.70;99.90;;;;;;5064773;28;20079;-71
2022/05/07 05:04:10;;;;;;;1999.90;999.90;;;11.70;99.90;;;;;;5055148;28;20099;-76
2022/05/07 05:06:36;;;;;;;1999.90;999.90;;;11.70;99.90;;;;;;5063363;28;20029;-71
2022/05/07 05:09:04;;;;;;;1999.90;999.90;;;11.70;99.90;;;;;;5057964;28;20013;-76
2022/05/07 05:11:30;;;;;;;1999.90;999.90;;;11.70;99.90;;;;;;5064647;28;20029;-75
2022/05/07 05:13:56;;;;;;;1999.90;999.90;;;11.70;99.90;;;;;;5059177;28;20395;-74
2022/05/07 05:16:22;;;;;;;1999.90;999.90;;;11.80;99.90;;;;;;5057688;28;20029;-76
2022/05/07 05:18:48;;;;;;;1999.90;999.90;;;11.80;99.90;;;;;;5055472;28;20531;-70
2022/05/07 05:21:13;;;;;;;1999.90;999.90;;;11.80;99.90;;;;;;5054726;28;20119;-71
2022/05/07 05:23:39;;;;;;;1999.90;999.90;;;11.80;99.90;;;;;;5054727;28;20487;-75
2022/05/07 05:26:05;;;;;;;1999.90;999.90;;;11.80;99.90;;;;;;5055234;28;20106;-71
2022/05/07 05:28:30;;;;;;;1999.90;999.90;;;11.80;99.90;;;;;;5055329;28;20614;-70
2022/05/07 05:30:56;;;;;;;1999.90;999.90;;;11.80;99.90;;;;;;5054109;28;20025;-74
2022/05/07 05:33:22;;;;;;;1999.90;999.90;;;11.80;99.90;;;;;;5049076;28;20032;-71
2022/05/07 05:35:49;;;;;;;1999.90;999.90;;;11.80;99.90;;;;;;5051649;28;20029;-71
2022/05/07 05:38:15;;;;;;;1999.90;999.90;;;11.80;99.90;;;;;;5055291;28;20165;-76
2022/05/07 05:40:41;;;;;;;1999.90;999.90;;;11.80;99.90;;;;;;5053618;28;20033;-75
2022/05/07 05:43:08;;;;;;;1999.90;999.90;;;11.80;99.90;;;;;;5054897;28;20078;-71
2022/05/07 05:45:34;;;;;;;1999.90;999.90;;;11.80;99.90;;;;;;5054477;28;20106;-71
2022/05/07 05:48:04;;;;;;;1999.90;999.90;;;11.80;99.90;;;;;;5060476;28;20514;-76
2022/05/07 05:50:30;;;;;;;1999.90;999.90;;;11.80;99.90;;;;;;5056829;28;20067;-76
2022/05/07 05:52:59;;;;;;;1999.90;999.90;;;11.80;99.90;;;;;;5061116;28;20068;-75
2022/05/07 05:55:25;;;;;;;1999.90;999.90;;;11.80;99.90;;;;;;5054410;28;20365;-71
2022/05/07 05:57:51;;;;;;;1999.90;999.90;;;11.90;99.90;;;;;;5061830;28;20031;-75
2022/05/07 06:00:17;;;;;;;1999.90;999.90;;;11.90;99.90;;;;;;5064665;28;20025;-75
2022/05/07 06:02:44;;;;;;;1999.90;999.90;;;12.00;99.90;;;;;;5061531;28;20029;-76
2022/05/07 06:05:15;;;;;;;1999.90;999.90;;;12.10;99.90;;;;;;5060251;28;20025;-71
2022/05/07 06:07:41;;;;;;;1999.90;999.90;;;12.20;99.90;;;;;;5059907;28;20120;-75
2022/05/07 06:10:07;;;;;;;1999.90;999.90;;;12.30;99.90;;;;;;5065473;28;20384;-71
2022/05/07 06:12:34;;;;;;;1999.90;999.90;;;12.40;99.90;;;;;;5060911;28;20104;-71
2022/05/07 06:14:59;;;;;;;1999.90;999.90;;;12.50;99.90;;;;;;5055654;28;20017;-76
2022/05/07 06:17:28;;;;;;;1999.90;999.90;;;12.60;99.90;;;;;;5054321;28;20056;-76
2022/05/07 06:19:53;;;;;;;1999.90;999.90;;;12.80;99.90;;;;;;5049776;28;20062;-71
2022/05/07 06:22:19;;;;;;;1999.90;999.90;;;12.90;99.90;;;;;;5054443;28;20032;-71
2022/05/07 06:27:32;;;;;;;1999.90;999.90;;;13.10;99.90;;;;;;5054120;28;20040;-76
2022/05/07 06:29:59;;;;;;;1999.90;999.90;;;13.10;99.90;;;;;;5053706;28;20021;-76
2022/05/07 06:32:32;;;;;;;1999.90;999.90;;;13.20;99.90;;;;;;5048485;28;20040;-71
2022/05/07 06:34:57;;;;;;;1999.90;999.90;;;13.40;99.90;;;;;;5053849;28;20376;-71
2022/05/07 06:37:23;;;;;;;1999.90;999.90;;;13.60;99.90;;;;;;5053976;28;20024;-71
2022/05/07 06:39:49;;;;;;;1999.90;999.90;;;13.80;99.90;;;;;;5052457;28;20058;-71
2022/05/07 06:42:15;;;;;;;1999.90;999.90;;;14.10;99.90;;;;;;5062465;28;20033;-76
2022/05/07 06:44:41;;;;;;;1999.90;999.90;;;14.50;99.90;;;;;;5053630;28;20021;-76
2022/05/07 06:47:07;;;;;;;1999.90;999.90;;;14.70;99.90;;;;;;5053666;28;20048;-71
2022/05/07 06:49:33;;;;;;;1999.90;999.90;;;14.80;99.90;;;;;;5054193;28;20079;-76
2022/05/07 06:51:58;;;;;;;1999.90;999.90;;;15.00;99.90;;;;;;5059793;28;20492;-75
2022/05/07 06:54:24;;;;;;;1999.90;999.90;;;15.00;99.90;;;;;;5053497;28;20502;-76
2022/05/07 06:56:50;;;;;;;1999.90;999.90;;;15.00;99.90;;;;;;5053403;28;20050;-76
2022/05/07 06:59:15;;;;;;;1999.90;999.90;;;15.10;99.90;;;;;;5053260;28;20029;-71
2022/05/07 07:01:41;;;;;;;1999.90;999.90;;;15.30;99.90;;;;;;5062990;28;20087;-76
2022/05/07 07:04:07;;;;;;;1999.90;999.90;;;15.40;99.90;;;;;;5052682;28;20021;-71
2022/05/07 07:06:33;;;;;;;1999.90;999.90;;;15.50;99.90;;;;;;5060990;28;20476;-76
2022/05/07 07:08:59;;;;;;;1999.90;999.90;;;15.70;99.90;;;;;;5052607;28;20025;-76
2022/05/07 07:11:27;;;;;;;1999.90;999.90;;;15.80;99.90;;;;;;5062357;28;20032;-71
2022/05/07 07:13:53;;;;;;;1999.90;999.90;;;16.10;99.90;;;;;;5055249;28;20016;-71
2022/05/07 07:16:18;;;;;;;1999.90;999.90;;;16.20;99.90;;;;;;5056219;28;20508;-71
2022/05/07 07:18:44;;;;;;;1999.90;999.90;;;16.40;99.90;;;;;;5053236;28;20499;-71
2022/05/07 07:21:11;;;;;;;1999.90;999.90;;;16.60;99.90;;;;;;5052641;28;20029;-76
2022/05/07 07:23:37;;;;;;;1999.90;999.90;;;16.50;99.90;;;;;;5043480;28;20021;-71
2022/05/07 07:26:04;;;;;;;1999.90;999.90;;;16.40;99.90;;;;;;5052851;28;20037;-71
2022/05/07 07:28:31;;;;;;;1999.90;999.90;;;16.40;99.90;;;;;;5057993;28;20039;-71
2022/05/07 07:30:57;;;;;;;1999.90;999.90;;;16.70;99.90;;;;;;5055224;28;20440;-71
2022/05/07 07:33:23;;;;;;;1999.90;999.90;;;16.80;99.90;;;;;;5047639;28;20510;-71
2022/05/07 07:35:49;;;;;;;1999.90;999.90;;;16.80;99.90;;;;;;5052619;28;20020;-75
2022/05/07 07:38:14;;;;;;;1999.90;999.90;;;16.90;99.90;;;;;;5052925;28;20491;-71
2022/05/07 07:40:41;;;;;;;1999.90;999.90;;;17.00;99.90;;;;;;5052867;28;20032;-71
2022/05/07 07:43:06;;;;;;;1999.90;999.90;;;16.90;99.90;;;;;;5061730;28;20029;-71
2022/05/07 07:48:16;;;;;;;1999.90;999.90;;;19.10;99.90;;;;;;5060786;28;20063;-77
2022/05/07 07:50:44;;;;;;;1999.90;999.90;;;21.90;99.90;;;;;;5056771;28;20475;-72
2022/05/07 07:53:11;;;;;;;1999.90;999.90;;;23.10;97.70;;;;;;5055405;28;20048;-72
2022/05/07 07:55:38;;;;;;;1999.90;999.90;;;24.50;95.30;;;;;;5052006;28;20029;-72
2022/05/07 07:58:06;;;;;;;1999.90;999.90;;;25.20;94.50;;;;;;5052315;28;20024;-77
2022/05/07 08:00:33;;;;;;;1999.90;999.90;;;25.70;93.40;;;;;;5057214;28;20020;-77
2022/05/07 08:03:00;;;;;;;1999.90;999.90;;;25.80;93.00;;;;;;5057629;28;20021;-75
2022/05/07 08:05:35;;;;;;;1999.90;999.90;;;25.90;92.70;;;;;;5054243;28;20032;-72
2022/05/07 08:13:37;;;;;;;1999.90;999.90;;;27.00;90.50;;;;;;5050194;28;20032;-77
2022/05/07 08:16:04;;;;;;;1999.90;999.90;;;27.40;89.90;;;;;;5057121;28;20488;-73
2022/05/07 08:18:30;;;;;;;1999.90;999.90;;;27.70;89.30;;;;;;5051837;28;20033;-78
2022/05/07 08:20:56;;;;;;;1999.90;999.90;;;27.90;88.70;;;;;;5051855;28;20476;-73
2022/05/07 08:23:22;;;;;;;1999.90;999.90;;;28.50;87.90;;;;;;5052583;28;20369;-77
2022/05/07 08:25:49;;;;;;;1999.90;999.90;;;28.70;87.50;;;;;;5052049;28;20037;-77
2022/05/07 08:28:17;;;;;;;1999.90;999.90;;;28.70;87.50;;;;;;5052143;28;20098;-73
2022/05/07 08:30:43;;;;;;;1999.90;999.90;;;29.20;85.60;;;;;;5052096;28;20025;-73
2022/05/07 08:33:09;;;;;;;1999.90;999.90;;;29.40;85.50;;;;;;5052241;28;20102;-73
2022/05/07 08:35:35;;;;;;;1999.90;999.90;;;29.90;84.90;;;;;;5052009;28;20472;-73
2022/05/07 08:38:00;;;;;;;1999.90;999.90;;;30.50;83.80;;;;;;5052168;28;20036;-77
2022/05/07 08:40:29;;;;;;;1999.90;999.90;;;29.80;83.00;;;;;;5052214;28;20043;-78
2022/05/07 08:42:55;;;;;;;1999.90;999.90;;;29.50;84.30;;;;;;5052143;28;20060;-74
2022/05/07 08:45:21;;;;;;;1999.90;999.90;;;29.80;83.30;;;;;;5051142;28;20079;-78
2022/05/07 08:47:51;;;;;;;1999.90;999.90;;;30.40;82.20;;;;;;5056107;28;20040;-73
2022/05/07 08:50:17;;;;;;;1999.90;999.90;;;31.40;81.80;;;;;;5055306;28;20029;-78
2022/05/07 08:52:44;;;;;;;1999.90;999.90;;;30.90;81.70;;;;;;5057694;28;20067;-78
2022/05/07 08:55:14;;;;;;;1999.90;999.90;;;30.70;81.50;;;;;;5051738;28;20017;-73
2022/05/07 08:57:42;;;;;;;1999.90;999.90;;;31.10;81.00;;;;;;5051788;28;20025;-73
2022/05/07 09:00:09;;;;;;;1999.90;999.90;;;31.10;80.70;;;;;;5052136;28;20401;-74
2022/05/07 09:03:02;;;;;;;1999.90;999.90;;;31.30;80.00;;;;;;5061196;28;20032;-73
2022/05/07 09:05:36;;;;;;;1999.90;999.90;;;31.10;80.10;;;;;;5050463;28;20515;-79
2022/05/07 09:08:03;;;;;;;1999.90;999.90;;;30.80;79.80;;;;;;5058118;28;20029;-74
2022/05/07 09:10:33;;;;;;;1999.90;999.90;;;30.70;80.10;;;;;;5059706;28;20382;-74
2022/05/07 09:13:19;;;;;;;1999.90;999.90;;;30.60;79.90;;;;;;5059094;28;20033;-79
2022/05/07 09:15:55;;;;;;;1999.90;999.90;;;31.60;79.50;;;;;;5060055;28;20040;-79
2022/05/07 09:18:23;;;;;;;1999.90;999.90;;;31.40;79.90;;;;;;5055384;28;20028;-79
2022/05/07 09:21:26;;;;;;;1999.90;999.90;;;32.10;79.90;;;;;;5054890;28;20541;-78
2022/05/07 09:23:57;;;;;;;1999.90;999.90;;;32.00;78.90;;;;;;5055299;28;20025;-73
2022/05/07 09:26:29;;;;;;;1999.90;999.90;;;31.80;80.10;;;;;;5055062;28;20125;-79
2022/05/07 09:28:55;;;;;;;1999.90;999.90;;;31.60;80.10;;;;;;5054456;28;20032;-74
2022/05/07 09:31:28;;;;;;;1999.90;999.90;;;31.20;79.50;;;;;;5054911;28;20040;-79
2022/05/07 09:33:55;;;;;;;1999.90;999.90;;;31.00;80.20;;;;;;5054857;28;20395;-78
2022/05/07 09:36:23;;;;;;;1999.90;999.90;;;31.60;80.60;;;;;;5054738;28;20518;-74
2022/05/07 09:38:59;;;;;;;1999.90;999.90;;;32.60;79.80;;;;;;5054524;28;20037;-73
2022/05/07 09:41:25;;;;;;;1999.90;999.90;;;30.80;80.30;;;;;;5055301;28;20025;-73
2022/05/07 09:43:51;;;;;;;1999.90;999.90;;;31.10;81.10;;;;;;5054680;28;20044;-78
2022/05/07 09:46:19;;;;;;;1999.90;999.90;;;30.90;80.50;;;;;;5054699;28;20041;-78
2022/05/07 09:48:46;;;;;;;1999.90;999.90;;;31.60;80.20;;;;;;5063405;28;20123;-79
2022/05/07 09:51:12;;;;;;;1999.90;999.90;;;32.40;78.30;;;;;;5058368;28;20020;-74
2022/05/07 09:59:06;;;;;;;1999.90;999.90;;;31.40;78.90;;;;;;5054833;28;20075;-74
2022/05/07 10:01:44;;;;;;;1999.90;999.90;;;30.70;79.20;;;;;;5053122;28;20025;-74
2022/05/07 10:04:44;;;;;;;1999.90;999.90;;;30.90;79.80;;;;;;5053873;28;20021;-73
2022/05/07 10:07:21;;;;;;;1999.90;999.90;;;31.60;77.60;;;;;;5029179;28;20061;-79
2022/05/07 10:09:56;;;;;;;1999.90;999.90;;;31.90;77.40;;;;;;5054689;28;20048;-78
2022/05/07 10:12:23;;;;;;;1999.90;999.90;;;32.00;77.90;;;;;;5045347;28;20439;-74
2022/05/07 10:14:49;;;;;;;1999.90;999.90;;;32.00;75.80;;;;;;5067049;28;20028;-79
2022/05/07 10:17:15;;;;;;;1999.90;999.90;;;32.10;75.90;;;;;;5065793;28;20096;-73
2022/05/07 10:19:42;;;;;;;1999.90;999.90;;;32.20;77.10;;;;;;5052488;28;20025;-74
2022/05/07 10:22:16;;;;;;;1999.90;999.90;;;31.80;76.80;;;;;;5074930;28;20036;-78
2022/05/07 10:24:42;;;;;;;1999.90;999.90;;;31.80;77.20;;;;;;5055515;28;20029;-79
2022/05/07 10:27:20;;;;;;;1999.90;999.90;;;31.40;76.80;;;;;;5054110;28;20484;-73
2022/05/07 10:29:47;;;;;;;1999.90;999.90;;;31.10;76.80;;;;;;5051519;28;20025;-78
2022/05/07 10:32:18;;;;;;;1999.90;999.90;;;31.10;77.60;;;;;;5054007;28;20020;-74
2022/05/07 10:34:52;;;;;;;1999.90;999.90;;;31.70;75.30;;;;;;5053983;28;20071;-79
2022/05/07 10:37:18;;;;;;;1999.90;999.90;;;31.40;74.80;;;;;;5053154;28;20447;-73
2022/05/07 10:39:51;;;;;;;1999.90;999.90;;;31.90;75.50;;;;;;5053682;28;20060;-79
2022/05/07 10:42:18;;;;;;;1999.90;999.90;;;32.30;76.00;;;;;;5053778;28;20499;-73
2022/05/07 10:44:43;;;;;;;1999.90;999.90;;;32.10;76.40;;;;;;5053860;28;20078;-79
2022/05/07 10:47:10;;;;;;;1999.90;999.90;;;31.90;74.90;;;;;;5047699;28;20045;-79
2022/05/07 10:50:08;;;;;;;1999.90;999.90;;;31.60;74.00;;;;;;5062011;28;20480;-74
2022/05/07 10:52:35;;;;;;;1999.90;999.90;;;31.40;75.10;;;;;;5058081;28;20017;-73
2022/05/07 10:55:09;;;;;;;1999.90;999.90;;;32.30;74.90;;;;;;5053210;28;20028;-79
2022/05/07 10:57:45;;;;;;;1999.90;999.90;;;32.40;74.40;;;;;;5053309;28;20029;-73
2022/05/07 11:00:22;;;;;;;1999.90;999.90;;;32.30;75.10;;;;;;5053414;28;20032;-74
2022/05/07 11:02:49;;;;;;;1999.90;999.90;;;32.40;75.40;;;;;;5053479;28;20388;-74
2022/05/07 11:05:16;;;;;;;1999.90;999.90;;;32.30;77.30;;;;;;5054252;28;20391;-74
2022/05/07 11:07:43;;;;;;;1999.90;999.90;;;32.50;74.70;;;;;;5052715;28;20116;-74
2022/05/07 11:10:10;;;;;;;1999.90;999.90;;;32.60;75.20;;;;;;5055426;28;20029;-74
2022/05/07 11:12:38;;;;;;;1999.90;999.90;;;32.20;75.10;;;;;;5057781;28;20094;-74
2022/05/07 11:15:08;;;;;;;1999.90;999.90;;;32.00;75.30;;;;;;5059018;28;20082;-79
2022/05/07 11:17:40;;;;;;;1999.90;999.90;;;32.00;76.40;;;;;;5053128;28;20028;-73
2022/05/07 11:20:06;;;;;;;1999.90;999.90;;;30.40;76.20;;;;;;5055493;28;20067;-73
2022/05/07 11:22:32;;;;;;;1999.90;999.90;;;28.70;79.50;;;;;;5053103;28;20025;-73
2022/05/07 11:25:02;;;;;;;1999.90;999.90;;;29.30;77.80;;;;;;5053028;28;20080;-73
2022/05/07 11:27:32;;;;;;;1999.90;999.90;;;30.40;76.90;;;;;;5052833;28;20060;-79
2022/05/07 11:30:01;;;;;;;1999.90;999.90;;;30.90;75.60;;;;;;5051564;28;20442;-73
2022/05/07 11:32:41;;;;;;;1999.90;999.90;;;31.70;75.40;;;;;;5052941;28;20470;-73
2022/05/07 11:35:09;;;;;;;1999.90;999.90;;;31.20;74.40;;;;;;5052650;28;20028;-73
2022/05/07 11:37:40;;;;;;;1999.90;999.90;;;31.00;74.70;;;;;;5052908;28;20013;-73
2022/05/07 11:40:06;;;;;;;1999.90;999.90;;;30.40;75.50;;;;;;5061835;28;20371;-79
2022/05/07 11:42:49;;;;;;;1999.90;999.90;;;29.50;75.20;;;;;;5047095;28;20029;-79
2022/05/07 11:45:30;;;;;;;1999.90;999.90;;;29.00;76.30;;;;;;5052765;28;20017;-73
2022/05/07 11:48:07;;;;;;;1999.90;999.90;;;28.60;76.90;;;;;;5057079;28;20036;-73
2022/05/07 11:50:42;;;;;;;1999.90;999.90;;;28.30;76.20;;;;;;5052522;28;20049;-73
2022/05/07 11:53:15;;;;;;;1999.90;999.90;;;27.90;76.50;;;;;;5058860;28;20023;-73
2022/05/07 11:55:43;;;;;;;1999.90;999.90;;;27.80;78.30;;;;;;5052554;28;20396;-79
2022/05/07 11:58:22;;;;;;;1999.90;999.90;;;27.90;76.90;;;;;;5052427;28;20060;-79
2022/05/07 12:00:53;;;;;;;1999.90;999.90;;;27.90;76.30;;;;;;5058378;28;20095;-73
2022/05/07 12:03:20;;;;;;;1999.90;999.90;;;27.80;76.10;;;;;;5055250;28;20124;-73
2022/05/07 12:05:54;;;;;;;1999.90;999.90;;;28.10;76.50;;;;;;5053226;28;20028;-79
2022/05/07 12:08:29;;;;;;;1999.90;999.90;;;28.30;77.90;;;;;;5078935;28;20040;-79
2022/05/07 12:10:55;;;;;;;1999.90;999.90;;;28.60;76.30;;;;;;5051777;28;20017;-73
2022/05/07 12:13:22;;;;;;;1999.90;999.90;;;28.40;77.00;;;;;;5051918;28;20036;-72
2022/05/07 12:18:37;;;;;;;1999.90;999.90;;;28.20;77.80;;;;;;5052380;28;20057;-73
2022/05/07 12:21:03;;;;;;;1999.90;999.90;;;28.10;77.70;;;;;;5052049;28;20100;-78
2022/05/07 12:31:42;;;;;;;1999.90;999.90;;;27.10;78.70;;;;;;5052215;28;20453;-78
2022/05/07 12:34:08;;;;;;;1999.90;999.90;;;27.50;79.70;;;;;;5052117;28;20029;-79
2022/05/07 12:36:34;;;;;;;1999.90;999.90;;;27.40;79.40;;;;;;5051980;28;20108;-72